createdAt,value
2023-06-07T00:00:08.472Z,81.68
2023-06-07T00:00:40.409Z,81.74
2023-06-07T00:01:13.634Z,81.30
2023-06-07T00:01:45.570Z,81.29
2023-06-07T00:02:26.250Z,81.13
2023-06-07T00:03:02.486Z,81.76
2023-06-07T00:03:35.098Z,81.68
2023-06-07T00:04:07.849Z,81.61
2023-06-07T00:04:41.026Z,81.59
2023-06-07T00:05:16.168Z,81.48
2023-06-07T00:05:48.536Z,81.29
2023-06-07T00:06:20.724Z,81.57
2023-06-07T00:07:02.022Z,81.39
2023-06-07T00:07:36.770Z,81.06
2023-06-07T00:08:08.720Z,81.16
2023-06-07T00:08:40.915Z,81.18
2023-06-07T00:09:12.860Z,81.37
2023-06-07T00:09:44.788Z,81.23
2023-06-07T00:10:16.847Z,81.23
2023-06-07T00:10:48.782Z,81.74
2023-06-07T00:11:22.418Z,81.82
2023-06-07T00:11:54.558Z,82.24
2023-06-07T00:12:26.584Z,82.07
2023-06-07T00:12:58.490Z,82.13
2023-06-07T00:13:30.467Z,82.34
2023-06-07T00:14:02.530Z,82.84
2023-06-07T00:14:34.470Z,82.66
2023-06-07T00:15:07.074Z,82.62
2023-06-07T00:15:39.019Z,82.66
2023-06-07T00:16:11.711Z,82.64
2023-06-07T00:16:46.116Z,82.23
2023-06-07T00:17:18.147Z,81.96
2023-06-07T00:17:50.250Z,81.97
2023-06-07T00:18:22.385Z,81.56
2023-06-07T00:18:54.321Z,81.98
2023-06-07T00:19:30.908Z,81.34
2023-06-07T00:20:02.999Z,81.22
2023-06-07T00:20:35.133Z,80.86
2023-06-07T00:21:07.372Z,81.08
2023-06-07T00:21:39.838Z,80.49
2023-06-07T00:22:14.059Z,80.69
2023-06-07T00:22:48.653Z,80.58
2023-06-07T00:23:21.971Z,80.64
2023-06-07T00:23:53.915Z,81.08
2023-06-07T00:24:25.872Z,80.80
2023-06-07T00:24:57.831Z,80.78
2023-06-07T00:25:29.805Z,80.38
2023-06-07T00:26:01.964Z,80.92
2023-06-07T00:26:34.414Z,80.75
2023-06-07T00:27:06.387Z,80.49
2023-06-07T00:27:38.328Z,80.39
2023-06-07T00:28:10.656Z,80.52
2023-06-07T00:28:42.565Z,80.75
2023-06-07T00:29:16.069Z,80.53
2023-06-07T00:29:48.033Z,80.44
2023-06-07T00:30:20.413Z,80.76
2023-06-07T00:30:52.422Z,80.53
2023-06-07T00:31:24.373Z,80.60
2023-06-07T00:31:56.309Z,80.75
2023-06-07T00:32:28.244Z,80.55
2023-06-07T00:33:00.483Z,80.63
2023-06-07T00:33:32.676Z,81.15
2023-06-07T00:34:05.170Z,81.40
2023-06-07T00:34:37.093Z,81.20
2023-06-07T00:35:09.460Z,81.36
2023-06-07T00:35:41.349Z,81.61
2023-06-07T00:36:13.275Z,82.05
2023-06-07T00:36:45.207Z,81.69
2023-06-07T00:37:17.174Z,82.11
2023-06-07T00:37:49.104Z,82.06
2023-06-07T00:38:21.016Z,81.64
2023-06-07T00:38:52.937Z,81.77
2023-06-07T00:39:25.993Z,81.62
2023-06-07T00:39:57.917Z,81.70
2023-06-07T00:40:29.833Z,81.77
2023-06-07T00:41:01.770Z,82.00
2023-06-07T00:41:33.682Z,82.06
2023-06-07T00:42:07.108Z,82.07
2023-06-07T00:42:39.035Z,81.79
2023-06-07T00:43:10.967Z,81.72
2023-06-07T00:43:44.202Z,81.65
2023-06-07T00:44:17.690Z,81.49
2023-06-07T00:44:49.593Z,81.74
2023-06-07T00:45:21.507Z,81.77
2023-06-07T00:45:53.485Z,81.72
2023-06-07T00:46:29.215Z,82.17
2023-06-07T00:47:01.507Z,82.07
2023-06-07T00:47:34.095Z,81.88
2023-06-07T00:48:06.378Z,82.72
2023-06-07T00:48:38.580Z,82.88
2023-06-07T00:49:11.818Z,83.25
2023-06-07T00:49:44.990Z,83.17
2023-06-07T00:50:16.933Z,82.84
2023-06-07T00:50:49.042Z,83.38
2023-06-07T00:51:21.207Z,83.08
2023-06-07T00:51:53.447Z,83.18
2023-06-07T00:52:25.804Z,83.00
2023-06-07T00:52:58.039Z,83.25
2023-06-07T00:53:30.856Z,83.39
2023-06-07T00:54:06.554Z,83.38
2023-06-07T00:54:38.837Z,83.22
2023-06-07T00:55:13.220Z,83.49
2023-06-07T00:55:45.388Z,83.24
2023-06-07T00:56:17.481Z,83.20
2023-06-07T00:56:50.791Z,83.44
2023-06-07T00:57:22.918Z,83.10
2023-06-07T00:57:55.896Z,83.28
2023-06-07T00:58:29.055Z,83.03
2023-06-07T00:59:00.961Z,82.99
2023-06-07T00:59:32.909Z,82.87
2023-06-07T01:00:14.389Z,82.71
2023-06-07T01:00:46.820Z,82.70
2023-06-07T01:01:21.860Z,82.57
2023-06-07T01:01:54.378Z,82.79
2023-06-07T01:02:27.437Z,82.28
2023-06-07T01:02:59.414Z,81.99
2023-06-07T01:03:32.344Z,81.94
2023-06-07T01:04:07.046Z,82.12
2023-06-07T01:04:41.150Z,81.95
2023-06-07T01:05:14.079Z,82.09
2023-06-07T01:05:46.081Z,82.39
2023-06-07T01:06:18.102Z,82.30
2023-06-07T01:06:50.509Z,82.35
2023-06-07T01:07:26.035Z,82.53
2023-06-07T01:07:58.211Z,82.39
2023-06-07T01:08:31.556Z,82.29
2023-06-07T01:09:04.287Z,82.24
2023-06-07T01:09:36.913Z,82.19
2023-06-07T01:10:09.454Z,82.49
2023-06-07T01:10:41.673Z,82.49
2023-06-07T01:11:14.383Z,82.28
2023-06-07T01:11:49.526Z,83.02
2023-06-07T01:12:24.059Z,83.03
2023-06-07T01:12:58.205Z,82.71
2023-06-07T01:13:31.061Z,82.54
2023-06-07T01:14:03.614Z,82.53
2023-06-07T01:14:36.071Z,82.37
2023-06-07T01:15:08.594Z,82.46
2023-06-07T01:15:41.341Z,82.54
2023-06-07T01:16:14.387Z,82.90
2023-06-07T01:16:49.853Z,82.48
2023-06-07T01:17:26.181Z,82.90
2023-06-07T01:17:59.218Z,82.44
2023-06-07T01:18:31.251Z,82.23
2023-06-07T01:19:05.401Z,82.37
2023-06-07T01:19:37.952Z,82.34
2023-06-07T01:20:14.414Z,82.33
2023-06-07T01:20:55.626Z,82.56
2023-06-07T01:21:27.572Z,82.24
2023-06-07T01:22:06.025Z,82.43
2023-06-07T01:22:38.746Z,82.52
2023-06-07T01:23:12.407Z,82.67
2023-06-07T01:23:44.411Z,82.71
2023-06-07T01:24:19.704Z,82.38
2023-06-07T01:24:51.903Z,82.59
2023-06-07T01:25:24.396Z,82.82
2023-06-07T01:26:01.083Z,82.24
2023-06-07T01:26:33.106Z,82.67
2023-06-07T01:27:08.283Z,82.53
2023-06-07T01:27:42.479Z,82.59
2023-06-07T01:28:15.620Z,82.33
2023-06-07T01:28:49.076Z,82.49
2023-06-07T01:29:22.443Z,82.37
2023-06-07T01:29:59.293Z,82.63
2023-06-07T01:30:32.911Z,82.76
2023-06-07T01:31:05.401Z,82.52
2023-06-07T01:31:39.071Z,82.42
2023-06-07T01:32:13.539Z,82.36
2023-06-07T01:32:46.989Z,82.50
2023-06-07T01:33:19.700Z,82.63
2023-06-07T01:33:52.862Z,82.42
2023-06-07T01:34:25.658Z,82.33
2023-06-07T01:34:58.290Z,82.44
2023-06-07T01:35:31.293Z,82.50
2023-06-07T01:36:05.016Z,82.30
2023-06-07T01:36:37.938Z,82.06
2023-06-07T01:37:11.174Z,81.75
2023-06-07T01:37:44.002Z,81.76
2023-06-07T01:38:18.504Z,81.90
2023-06-07T01:38:51.175Z,81.87
2023-06-07T01:39:25.110Z,81.80
2023-06-07T01:39:57.318Z,81.95
2023-06-07T01:40:29.834Z,81.62
2023-06-07T01:41:02.969Z,81.87
2023-06-07T01:41:36.442Z,81.65
2023-06-07T01:42:10.192Z,81.74
2023-06-07T01:42:42.463Z,81.53
2023-06-07T01:43:15.474Z,81.55
2023-06-07T01:43:49.551Z,81.32
2023-06-07T01:44:21.717Z,81.46
2023-06-07T01:44:54.945Z,81.72
2023-06-07T01:45:27.080Z,81.63
2023-06-07T01:45:59.998Z,81.53
2023-06-07T01:46:32.072Z,81.46
2023-06-07T01:47:04.639Z,81.31
2023-06-07T01:47:36.611Z,81.75
2023-06-07T01:48:09.952Z,81.54
2023-06-07T01:48:41.924Z,81.64
2023-06-07T01:49:14.865Z,81.93
2023-06-07T01:49:46.822Z,81.71
2023-06-07T01:50:22.836Z,81.91
2023-06-07T01:50:54.750Z,81.73
2023-06-07T01:51:26.636Z,82.17
2023-06-07T01:51:58.560Z,82.25
2023-06-07T01:52:30.587Z,81.80
2023-06-07T01:53:02.504Z,81.81
2023-06-07T01:53:34.877Z,81.88
2023-06-07T01:54:07.464Z,81.77
2023-06-07T01:54:40.362Z,81.72
2023-06-07T01:55:12.375Z,81.77
2023-06-07T01:55:44.322Z,81.51
2023-06-07T01:56:34.653Z,81.70
2023-06-07T01:57:27.617Z,81.43
2023-06-07T01:58:20.311Z,81.85
2023-06-07T01:59:25.218Z,81.99
2023-06-07T02:00:23.169Z,81.92
2023-06-07T02:01:34.855Z,81.97
2023-06-07T02:02:21.632Z,82.09
2023-06-07T02:02:59.156Z,82.20
2023-06-07T02:03:36.548Z,81.92
2023-06-07T02:04:12.695Z,82.16
2023-06-07T02:04:47.582Z,82.16
2023-06-07T02:05:30.424Z,82.17
2023-06-07T02:06:09.330Z,81.88
2023-06-07T02:06:45.387Z,81.87
2023-06-07T02:07:25.013Z,81.89
2023-06-07T02:08:00.839Z,82.06
2023-06-07T02:08:40.848Z,81.71
2023-06-07T02:09:14.024Z,81.88
2023-06-07T02:09:49.148Z,81.91
2023-06-07T02:10:24.535Z,81.83
2023-06-07T02:10:57.728Z,81.53
2023-06-07T02:11:31.964Z,81.69
2023-06-07T02:12:05.286Z,81.84
2023-06-07T02:12:38.134Z,82.15
2023-06-07T02:13:11.267Z,82.00
2023-06-07T02:13:44.112Z,81.67
2023-06-07T02:14:17.438Z,81.67
2023-06-07T02:14:53.794Z,81.46
2023-06-07T02:15:25.920Z,81.61
2023-06-07T02:15:57.904Z,81.53
2023-06-07T02:16:37.313Z,81.41
2023-06-07T02:17:09.784Z,81.46
2023-06-07T02:17:59.015Z,81.37
2023-06-07T02:18:32.227Z,81.11
2023-06-07T02:19:08.397Z,81.81
2023-06-07T02:19:41.166Z,81.35
2023-06-07T02:20:13.227Z,81.59
2023-06-07T02:20:45.157Z,81.48
2023-06-07T02:21:17.081Z,81.34
2023-06-07T02:21:48.992Z,81.44
2023-06-07T02:22:20.906Z,81.42
2023-06-07T02:22:52.859Z,81.40
2023-06-07T02:23:25.047Z,81.35
2023-06-07T02:23:57.167Z,81.96
2023-06-07T02:24:29.210Z,81.66
2023-06-07T02:25:01.142Z,81.58
2023-06-07T02:25:33.535Z,81.38
2023-06-07T02:26:05.832Z,81.34
2023-06-07T02:26:38.207Z,81.60
2023-06-07T02:27:10.181Z,81.29
2023-06-07T02:27:42.100Z,81.64
2023-06-07T02:28:14.090Z,81.47
2023-06-07T02:28:46.004Z,81.90
2023-06-07T02:29:18.147Z,81.34
2023-06-07T02:29:50.042Z,81.23
2023-06-07T02:30:22.058Z,81.44
2023-06-07T02:30:56.801Z,81.66
2023-06-07T02:31:28.944Z,81.39
2023-06-07T02:32:02.144Z,81.28
2023-06-07T02:32:34.758Z,81.15
2023-06-07T02:33:08.205Z,81.55
2023-06-07T02:33:40.224Z,81.66
2023-06-07T02:34:12.157Z,81.76
2023-06-07T02:34:44.516Z,81.67
2023-06-07T02:35:19.699Z,82.10
2023-06-07T02:35:51.808Z,81.96
2023-06-07T02:36:24.293Z,82.05
2023-06-07T02:36:56.241Z,81.53
2023-06-07T02:37:29.732Z,81.77
2023-06-07T02:38:01.699Z,82.05
2023-06-07T02:38:33.631Z,81.95
2023-06-07T02:39:05.548Z,82.04
2023-06-07T02:39:37.481Z,81.57
2023-06-07T02:40:13.243Z,81.47
2023-06-07T02:40:45.175Z,81.20
2023-06-07T02:41:17.082Z,81.61
2023-06-07T02:41:49.018Z,81.21
2023-06-07T02:42:20.961Z,81.64
2023-06-07T02:42:52.921Z,81.40
2023-06-07T02:43:24.897Z,81.42
2023-06-07T02:43:56.828Z,81.20
2023-06-07T02:44:29.414Z,81.42
2023-06-07T02:45:03.047Z,81.19
2023-06-07T02:45:35.034Z,81.20
2023-06-07T02:46:08.000Z,80.96
2023-06-07T02:46:39.990Z,81.80
2023-06-07T02:47:12.009Z,81.55
2023-06-07T02:47:44.734Z,81.43
2023-06-07T02:48:17.582Z,81.60
2023-06-07T02:48:49.505Z,81.50
2023-06-07T02:49:21.533Z,81.52
2023-06-07T02:49:53.442Z,81.43
2023-06-07T02:50:25.629Z,81.25
2023-06-07T02:50:57.540Z,81.38
2023-06-07T02:51:29.456Z,81.44
2023-06-07T02:52:01.373Z,81.62
2023-06-07T02:52:34.884Z,81.86
2023-06-07T02:53:08.552Z,81.71
2023-06-07T02:53:40.470Z,81.63
2023-06-07T02:54:12.469Z,81.80
2023-06-07T02:54:44.522Z,81.92
2023-06-07T02:55:16.533Z,81.77
2023-06-07T02:55:48.456Z,81.95
2023-06-07T02:56:20.410Z,81.84
2023-06-07T02:56:52.321Z,81.78
2023-06-07T02:57:24.267Z,81.45
2023-06-07T02:57:56.214Z,81.75
2023-06-07T02:58:28.462Z,82.16
2023-06-07T02:59:00.439Z,82.25
2023-06-07T02:59:32.372Z,81.87
2023-06-07T03:00:12.059Z,82.03
2023-06-07T03:00:51.012Z,81.59
2023-06-07T03:01:23.348Z,81.61
2023-06-07T03:01:55.364Z,81.40
2023-06-07T03:02:27.401Z,81.58
2023-06-07T03:02:59.501Z,81.54
2023-06-07T03:03:31.753Z,81.28
2023-06-07T03:04:03.706Z,81.40
2023-06-07T03:04:35.639Z,81.28
2023-06-07T03:05:08.584Z,81.35
2023-06-07T03:05:42.393Z,81.55
2023-06-07T03:06:16.343Z,81.45
2023-06-07T03:06:49.700Z,81.36
2023-06-07T03:07:21.770Z,81.53
2023-06-07T03:07:53.996Z,81.73
2023-06-07T03:08:25.965Z,81.48
2023-06-07T03:08:58.101Z,81.46
2023-06-07T03:09:30.013Z,81.53
2023-06-07T03:10:05.181Z,81.54
2023-06-07T03:10:37.881Z,81.76
2023-06-07T03:11:09.770Z,81.52
2023-06-07T03:11:41.674Z,81.80
2023-06-07T03:12:13.578Z,81.86
2023-06-07T03:12:45.505Z,81.86
2023-06-07T03:13:17.418Z,81.89
2023-06-07T03:13:49.354Z,81.90
2023-06-07T03:14:21.256Z,81.81
2023-06-07T03:14:53.159Z,81.52
2023-06-07T03:15:25.056Z,81.48
2023-06-07T03:15:56.981Z,81.75
2023-06-07T03:16:29.515Z,81.70
2023-06-07T03:17:04.019Z,82.08
2023-06-07T03:17:37.338Z,81.60
2023-06-07T03:18:10.053Z,81.83
2023-06-07T03:18:41.970Z,81.75
2023-06-07T03:19:14.834Z,81.83
2023-06-07T03:19:46.751Z,81.57
2023-06-07T03:20:19.337Z,81.88
2023-06-07T03:20:51.264Z,82.10
2023-06-07T03:21:23.204Z,82.14
2023-06-07T03:21:55.141Z,82.36
2023-06-07T03:22:27.054Z,81.93
2023-06-07T03:22:58.952Z,82.16
2023-06-07T03:23:31.509Z,81.53
2023-06-07T03:24:03.578Z,81.28
2023-06-07T03:24:37.774Z,81.23
2023-06-07T03:25:10.262Z,81.41
2023-06-07T03:25:42.243Z,81.60
2023-06-07T03:26:14.255Z,82.03
2023-06-07T03:26:46.297Z,81.56
2023-06-07T03:27:18.674Z,81.38
2023-06-07T03:27:50.661Z,81.60
2023-06-07T03:28:24.019Z,81.42
2023-06-07T03:28:56.041Z,81.44
2023-06-07T03:29:28.341Z,81.78
2023-06-07T03:30:03.414Z,82.03
2023-06-07T03:30:35.717Z,81.83
2023-06-07T03:31:07.662Z,81.46
2023-06-07T03:31:39.601Z,81.57
2023-06-07T03:32:11.608Z,81.34
2023-06-07T03:32:44.638Z,81.38
2023-06-07T03:33:16.731Z,81.53
2023-06-07T03:33:48.673Z,81.74
2023-06-07T03:34:21.147Z,81.75
2023-06-07T03:34:53.044Z,81.33
2023-06-07T03:35:24.966Z,80.97
2023-06-07T03:35:57.501Z,80.98
2023-06-07T03:36:32.215Z,80.50
2023-06-07T03:37:04.289Z,81.70
2023-06-07T03:37:36.265Z,81.47
2023-06-07T03:38:08.199Z,80.58
2023-06-07T03:38:40.150Z,80.74
2023-06-07T03:39:12.168Z,80.56
2023-06-07T03:39:44.095Z,81.11
2023-06-07T03:40:16.466Z,80.89
2023-06-07T03:40:48.370Z,80.71
2023-06-07T03:41:20.281Z,80.92
2023-06-07T03:41:52.189Z,81.04
2023-06-07T03:42:24.106Z,81.30
2023-06-07T03:42:56.132Z,81.34
2023-06-07T03:43:28.038Z,81.10
2023-06-07T03:44:00.002Z,81.39
2023-06-07T03:44:31.956Z,81.07
2023-06-07T03:45:04.537Z,81.27
2023-06-07T03:45:36.485Z,81.01
2023-06-07T03:46:08.421Z,81.41
2023-06-07T03:46:41.372Z,80.73
2023-06-07T03:47:13.291Z,81.13
2023-06-07T03:47:45.226Z,81.09
2023-06-07T03:48:17.262Z,81.28
2023-06-07T03:48:51.140Z,81.18
2023-06-07T03:49:24.848Z,81.27
2023-06-07T03:49:56.763Z,81.38
2023-06-07T03:50:28.678Z,80.71
2023-06-07T03:51:00.606Z,80.99
2023-06-07T03:51:34.136Z,80.98
2023-06-07T03:52:06.561Z,80.83
2023-06-07T03:52:38.501Z,80.76
2023-06-07T03:53:10.426Z,80.72
2023-06-07T03:53:42.313Z,80.53
2023-06-07T03:54:15.085Z,80.33
2023-06-07T03:54:46.998Z,80.06
2023-06-07T03:55:21.201Z,80.60
2023-06-07T03:55:56.091Z,80.15
2023-06-07T03:56:28.016Z,80.48
2023-06-07T03:56:59.970Z,80.52
2023-06-07T03:57:31.920Z,79.58
2023-06-07T03:58:03.851Z,79.36
2023-06-07T03:58:37.182Z,79.53
2023-06-07T03:59:09.183Z,79.86
2023-06-07T03:59:44.194Z,79.31
2023-06-07T04:00:18.511Z,79.26
2023-06-07T04:00:50.427Z,79.19
2023-06-07T04:01:26.499Z,79.10
2023-06-07T04:01:58.516Z,79.31
2023-06-07T04:02:31.295Z,79.21
2023-06-07T04:03:03.372Z,79.38
2023-06-07T04:03:35.734Z,79.26
2023-06-07T04:04:09.517Z,79.63
2023-06-07T04:04:41.533Z,79.20
2023-06-07T04:05:13.971Z,78.81
2023-06-07T04:05:46.786Z,79.10
2023-06-07T04:06:21.657Z,79.07
2023-06-07T04:06:53.573Z,78.65
2023-06-07T04:07:25.494Z,78.58
2023-06-07T04:08:00.654Z,78.65
2023-06-07T04:08:32.863Z,78.86
2023-06-07T04:09:05.002Z,78.80
2023-06-07T04:09:36.998Z,78.81
2023-06-07T04:10:09.009Z,78.85
2023-06-07T04:10:42.251Z,79.08
2023-06-07T04:11:14.158Z,79.01
2023-06-07T04:11:46.295Z,78.91
2023-06-07T04:12:18.660Z,79.14
2023-06-07T04:12:50.584Z,78.92
2023-06-07T04:13:22.496Z,78.22
2023-06-07T04:13:54.543Z,77.79
2023-06-07T04:14:26.420Z,77.37
2023-06-07T04:14:58.324Z,77.55
2023-06-07T04:15:30.334Z,77.46
2023-06-07T04:16:02.310Z,76.86
2023-06-07T04:16:34.350Z,77.12
2023-06-07T04:17:06.758Z,76.93
2023-06-07T04:17:38.762Z,76.57
2023-06-07T04:18:10.737Z,76.47
2023-06-07T04:18:42.732Z,76.48
2023-06-07T04:19:14.653Z,76.56
2023-06-07T04:19:51.330Z,75.01
2023-06-07T04:20:23.576Z,75.03
2023-06-07T04:20:55.514Z,75.42
2023-06-07T04:21:27.448Z,75.82
2023-06-07T04:21:59.991Z,75.50
2023-06-07T04:22:32.688Z,75.91
2023-06-07T04:23:04.581Z,76.03
2023-06-07T04:23:36.566Z,75.35
2023-06-07T04:24:08.600Z,75.60
2023-06-07T04:24:40.636Z,74.90
2023-06-07T04:25:12.793Z,74.73
2023-06-07T04:25:44.751Z,75.10
2023-06-07T04:26:19.802Z,74.87
2023-06-07T04:26:54.518Z,74.81
2023-06-07T04:27:30.885Z,74.53
2023-06-07T04:28:03.296Z,74.50
2023-06-07T04:28:35.558Z,74.55
2023-06-07T04:29:08.525Z,74.66
2023-06-07T04:29:41.951Z,75.57
2023-06-07T04:30:13.944Z,75.80
2023-06-07T04:30:46.879Z,75.30
2023-06-07T04:31:18.952Z,74.31
2023-06-07T04:31:53.730Z,73.43
2023-06-07T04:32:26.502Z,73.69
2023-06-07T04:32:59.572Z,74.02
2023-06-07T04:33:33.548Z,74.42
2023-06-07T04:34:06.100Z,74.65
2023-06-07T04:34:43.298Z,74.13
2023-06-07T04:35:15.772Z,74.19
2023-06-07T04:35:48.065Z,74.15
2023-06-07T04:36:20.065Z,74.37
2023-06-07T04:36:52.236Z,74.01
2023-06-07T04:37:26.092Z,74.06
2023-06-07T04:37:58.837Z,74.17
2023-06-07T04:38:31.115Z,74.16
2023-06-07T04:39:04.228Z,73.99
2023-06-07T04:39:37.691Z,74.16
2023-06-07T04:40:11.152Z,73.96
2023-06-07T04:40:43.817Z,73.18
2023-06-07T04:41:15.740Z,73.30
2023-06-07T04:41:47.966Z,73.24
2023-06-07T04:42:20.833Z,73.12
2023-06-07T04:43:08.411Z,73.03
2023-06-07T04:43:40.323Z,72.97
2023-06-07T04:44:16.438Z,73.25
2023-06-07T04:44:48.506Z,74.05
2023-06-07T04:45:29.685Z,73.63
2023-06-07T04:46:02.436Z,73.27
2023-06-07T04:46:34.656Z,73.42
2023-06-07T04:47:12.753Z,73.14
2023-06-07T04:47:46.866Z,72.34
2023-06-07T04:48:21.404Z,71.85
2023-06-07T04:48:53.901Z,71.80
2023-06-07T04:49:27.132Z,72.20
2023-06-07T04:50:00.418Z,71.78
2023-06-07T04:50:32.565Z,71.97
2023-06-07T04:51:05.381Z,71.85
2023-06-07T04:51:39.897Z,71.98
2023-06-07T04:52:13.899Z,71.86
2023-06-07T04:52:46.010Z,72.24
2023-06-07T04:53:21.049Z,71.50
2023-06-07T04:53:59.507Z,70.58
2023-06-07T04:54:32.381Z,70.84
2023-06-07T04:55:05.520Z,71.05
2023-06-07T04:55:38.584Z,71.22
2023-06-07T04:56:11.175Z,70.86
2023-06-07T04:56:43.135Z,70.31
2023-06-07T04:57:15.146Z,69.95
2023-06-07T04:57:47.070Z,70.19
2023-06-07T04:58:20.244Z,70.44
2023-06-07T04:58:53.602Z,70.48
2023-06-07T04:59:26.576Z,70.24
2023-06-07T04:59:58.485Z,70.06
2023-06-07T05:00:33.136Z,70.59
2023-06-07T05:01:05.086Z,70.62
2023-06-07T05:01:37.240Z,70.73
2023-06-07T05:02:09.686Z,71.18
2023-06-07T05:02:44.839Z,70.44
2023-06-07T05:03:22.882Z,70.50
2023-06-07T05:04:01.559Z,70.59
2023-06-07T05:04:33.502Z,71.00
2023-06-07T05:05:05.862Z,71.33
2023-06-07T05:05:38.214Z,71.79
2023-06-07T05:06:10.166Z,71.66
2023-06-07T05:06:42.108Z,71.42
2023-06-07T05:07:15.135Z,71.71
2023-06-07T05:07:48.040Z,72.01
2023-06-07T05:08:20.505Z,71.67
2023-06-07T05:08:52.424Z,71.63
2023-06-07T05:09:24.379Z,71.82
2023-06-07T05:09:56.595Z,71.81
2023-06-07T05:10:28.918Z,71.97
2023-06-07T05:11:00.929Z,71.75
2023-06-07T05:11:32.845Z,72.10
2023-06-07T05:12:04.933Z,71.57
2023-06-07T05:12:36.919Z,71.73
2023-06-07T05:13:08.937Z,71.49
2023-06-07T05:13:40.843Z,71.11
2023-06-07T05:14:12.744Z,71.11
2023-06-07T05:14:44.643Z,71.37
2023-06-07T05:15:16.601Z,70.94
2023-06-07T05:15:51.906Z,70.35
2023-06-07T05:16:25.798Z,70.46
2023-06-07T05:16:58.125Z,70.43
2023-06-07T05:17:30.770Z,70.87
2023-06-07T05:18:03.780Z,70.17
2023-06-07T05:18:37.291Z,70.03
2023-06-07T05:19:09.242Z,70.73
2023-06-07T05:19:41.150Z,70.43
2023-06-07T05:20:14.999Z,69.91
2023-06-07T05:20:49.700Z,69.55
2023-06-07T05:21:21.615Z,69.10
2023-06-07T05:21:53.528Z,69.12
2023-06-07T05:22:25.456Z,69.45
2023-06-07T05:22:58.118Z,69.14
2023-06-07T05:23:30.139Z,69.42
2023-06-07T05:24:02.247Z,69.11
2023-06-07T05:24:34.293Z,68.80
2023-06-07T05:25:06.927Z,69.27
2023-06-07T05:25:40.127Z,68.84
2023-06-07T05:26:12.350Z,69.28
2023-06-07T05:26:44.300Z,68.67
2023-06-07T05:27:16.708Z,68.54
2023-06-07T05:28:03.881Z,68.78
2023-06-07T05:28:42.305Z,69.36
2023-06-07T05:29:14.700Z,69.08
2023-06-07T05:29:46.946Z,69.29
2023-06-07T05:30:18.938Z,69.74
2023-06-07T05:30:51.348Z,69.87
2023-06-07T05:31:24.420Z,69.90
2023-06-07T05:31:57.039Z,69.38
2023-06-07T05:32:29.039Z,69.49
2023-06-07T05:33:01.057Z,69.46
2023-06-07T05:33:33.173Z,69.94
2023-06-07T05:34:05.105Z,70.81
2023-06-07T05:34:37.031Z,70.49
2023-06-07T05:35:09.696Z,70.59
2023-06-07T05:35:46.229Z,70.02
2023-06-07T05:36:18.167Z,68.68
2023-06-07T05:36:50.352Z,68.92
2023-06-07T05:37:22.258Z,68.61
2023-06-07T05:37:54.176Z,69.53
2023-06-07T05:38:26.329Z,69.09
2023-06-07T05:38:59.637Z,69.21
2023-06-07T05:39:31.541Z,69.46
2023-06-07T05:40:06.658Z,68.81
2023-06-07T05:40:38.872Z,69.21
2023-06-07T05:41:10.795Z,68.42
2023-06-07T05:41:43.442Z,69.31
2023-06-07T05:42:15.403Z,69.23
2023-06-07T05:42:47.444Z,69.41
2023-06-07T05:43:19.358Z,69.48
2023-06-07T05:43:51.264Z,70.01
2023-06-07T05:44:23.185Z,69.02
2023-06-07T05:44:55.629Z,68.50
2023-06-07T05:45:27.663Z,68.99
2023-06-07T05:45:59.662Z,68.84
2023-06-07T05:46:31.627Z,68.74
2023-06-07T05:47:03.596Z,67.98
2023-06-07T05:47:35.710Z,68.34
2023-06-07T05:48:08.260Z,67.51
2023-06-07T05:48:40.298Z,67.55
2023-06-07T05:49:12.193Z,69.12
2023-06-07T05:49:45.196Z,68.10
2023-06-07T05:50:20.644Z,67.47
2023-06-07T05:50:53.345Z,67.34
2023-06-07T05:51:25.319Z,66.83
2023-06-07T05:51:57.840Z,66.20
2023-06-07T05:52:29.800Z,66.46
2023-06-07T05:53:01.700Z,66.76
2023-06-07T05:53:33.621Z,67.19
2023-06-07T05:54:08.152Z,67.37
2023-06-07T05:54:40.233Z,67.67
2023-06-07T05:55:12.179Z,66.99
2023-06-07T05:55:46.510Z,67.12
2023-06-07T05:56:20.015Z,67.30
2023-06-07T05:56:54.278Z,67.11
2023-06-07T05:57:26.405Z,66.78
2023-06-07T05:58:04.971Z,65.66
2023-06-07T05:58:36.961Z,65.43
2023-06-07T05:59:08.879Z,65.75
2023-06-07T05:59:40.781Z,64.94
2023-06-07T06:00:13.128Z,64.77
2023-06-07T06:00:45.541Z,64.96
2023-06-07T06:01:18.328Z,65.36
2023-06-07T06:01:50.511Z,66.17
2023-06-07T06:02:24.373Z,64.90
2023-06-07T06:02:57.787Z,65.21
2023-06-07T06:03:29.904Z,64.68
2023-06-07T06:04:02.518Z,64.47
2023-06-07T06:04:35.029Z,64.87
2023-06-07T06:05:07.742Z,64.93
2023-06-07T06:05:39.666Z,64.44
2023-06-07T06:06:16.560Z,65.48
2023-06-07T06:06:49.489Z,65.59
2023-06-07T06:07:21.404Z,65.71
2023-06-07T06:07:53.726Z,65.98
2023-06-07T06:08:25.689Z,65.76
2023-06-07T06:08:57.592Z,64.82
2023-06-07T06:09:29.866Z,65.04
2023-06-07T06:10:02.039Z,65.10
2023-06-07T06:10:35.951Z,65.97
2023-06-07T06:11:13.381Z,66.71
2023-06-07T06:11:45.363Z,66.32
2023-06-07T06:12:17.311Z,66.04
2023-06-07T06:12:49.289Z,66.07
2023-06-07T06:13:21.215Z,65.84
2023-06-07T06:13:53.129Z,64.90
2023-06-07T06:14:26.348Z,64.62
2023-06-07T06:14:58.328Z,65.60
2023-06-07T06:15:30.403Z,65.51
2023-06-07T06:16:02.363Z,66.08
2023-06-07T06:16:34.329Z,66.63
2023-06-07T06:17:07.394Z,66.66
2023-06-07T06:17:39.519Z,66.43
2023-06-07T06:18:11.533Z,66.45
2023-06-07T06:18:43.642Z,66.20
2023-06-07T06:19:15.650Z,67.00
2023-06-07T06:19:47.550Z,66.14
2023-06-07T06:20:19.461Z,65.37
2023-06-07T06:20:51.581Z,65.00
2023-06-07T06:21:23.513Z,64.43
2023-06-07T06:21:55.618Z,65.33
2023-06-07T06:22:27.747Z,66.44
2023-06-07T06:23:00.333Z,65.32
2023-06-07T06:23:32.277Z,65.43
2023-06-07T06:24:04.512Z,65.76
2023-06-07T06:24:36.464Z,65.31
2023-06-07T06:25:08.550Z,65.76
2023-06-07T06:25:40.703Z,65.41
2023-06-07T06:26:12.748Z,65.79
2023-06-07T06:26:44.644Z,64.50
2023-06-07T06:27:17.170Z,65.14
2023-06-07T06:27:49.236Z,65.01
2023-06-07T06:28:22.395Z,65.53
2023-06-07T06:28:54.441Z,65.50
2023-06-07T06:29:26.360Z,66.31
2023-06-07T06:29:58.270Z,66.59
2023-06-07T06:30:30.876Z,65.92
2023-06-07T06:31:04.508Z,66.00
2023-06-07T06:31:37.013Z,66.22
2023-06-07T06:32:09.469Z,65.70
2023-06-07T06:32:41.428Z,66.66
2023-06-07T06:33:13.453Z,66.11
2023-06-07T06:33:46.105Z,65.47
2023-06-07T06:34:19.931Z,65.45
2023-06-07T06:34:51.883Z,64.73
2023-06-07T06:35:23.811Z,65.56
2023-06-07T06:35:55.768Z,64.69
2023-06-07T06:36:27.918Z,64.71
2023-06-07T06:37:01.169Z,65.24
2023-06-07T06:37:33.091Z,65.68
2023-06-07T06:38:05.089Z,65.97
2023-06-07T06:38:37.013Z,65.78
2023-06-07T06:39:09.460Z,65.82
2023-06-07T06:39:41.420Z,66.31
2023-06-07T06:40:13.649Z,66.09
2023-06-07T06:40:46.322Z,66.83
2023-06-07T06:41:18.275Z,65.81
2023-06-07T06:41:50.167Z,65.84
2023-06-07T06:42:22.120Z,65.43
2023-06-07T06:42:54.720Z,65.86
2023-06-07T06:43:26.993Z,66.74
2023-06-07T06:43:59.159Z,66.19
2023-06-07T06:44:31.221Z,66.20
2023-06-07T06:45:03.143Z,66.52
2023-06-07T06:45:35.088Z,65.77
2023-06-07T06:46:07.223Z,66.83
2023-06-07T06:46:39.255Z,66.87
2023-06-07T06:47:11.620Z,66.65
2023-06-07T06:47:43.621Z,67.65
2023-06-07T06:48:15.597Z,67.06
2023-06-07T06:48:55.764Z,66.89
2023-06-07T06:49:34.908Z,66.45
2023-06-07T06:50:18.527Z,66.86
2023-06-07T06:50:55.115Z,66.18
2023-06-07T06:51:27.119Z,65.59
2023-06-07T06:51:59.034Z,65.69
2023-06-07T06:52:30.947Z,65.31
2023-06-07T06:53:02.852Z,64.79
2023-06-07T06:53:34.753Z,65.94
2023-06-07T06:54:06.739Z,64.62
2023-06-07T06:54:38.697Z,64.75
2023-06-07T06:55:10.856Z,64.85
2023-06-07T06:55:42.751Z,63.83
2023-06-07T06:56:14.703Z,64.46
2023-06-07T06:56:46.678Z,64.51
2023-06-07T06:57:18.586Z,64.51
2023-06-07T06:57:50.810Z,64.39
2023-06-07T06:58:22.712Z,64.56
2023-06-07T06:58:54.598Z,64.77
2023-06-07T06:59:26.521Z,64.93
2023-06-07T06:59:59.839Z,64.48
2023-06-07T07:00:36.393Z,64.15
2023-06-07T07:01:09.186Z,64.03
2023-06-07T07:01:46.985Z,64.24
2023-06-07T07:02:19.205Z,63.79
2023-06-07T07:02:51.389Z,65.40
2023-06-07T07:03:23.477Z,64.89
2023-06-07T07:03:55.434Z,64.16
2023-06-07T07:04:27.481Z,64.49
2023-06-07T07:05:00.032Z,64.05
2023-06-07T07:05:32.094Z,64.70
2023-06-07T07:06:04.136Z,64.60
2023-06-07T07:06:36.081Z,64.93